Time;durP1;ratioP1;P1;durP2;ratioP2;P2;SDS_P1;SDS_P2;PMS_P1;PMS_P2;Temp;Humidity;BMP_temperature;BMP_pressure;BME280_temperature;BME280_humidity;BME280_pressure;Samples;Min_cycle;Max_cycle;Signal;HPM_P1;HPM_P2
2021/06/09 00:01:48;;;;;;;0.50;0.50;;;11.90;69.10;;;;;;5045588;28;20170;-65
2021/06/09 00:04:15;;;;;;;0.35;0.22;;;12.00;67.90;;;;;;5045411;28;20041;-65
2021/06/09 00:06:43;;;;;;;0.30;0.30;;;12.10;70.10;;;;;;5045633;28;20120;-67
2021/06/09 00:09:09;;;;;;;1.00;0.20;;;12.20;68.50;;;;;;5045163;28;20467;-66
2021/06/09 00:11:37;;;;;;;0.35;0.17;;;12.30;67.40;;;;;;5045189;28;20056;-71
2021/06/09 00:14:05;;;;;;;0.22;0.20;;;12.30;64.90;;;;;;5045446;28;20078;-73
2021/06/09 00:16:34;;;;;;;0.90;0.20;;;12.40;66.20;;;;;;5045705;28;20563;-66
2021/06/09 00:19:01;;;;;;;0.10;0.10;;;12.40;65.40;;;;;;5045754;28;20044;-70
2021/06/09 00:21:28;;;;;;;0.50;0.17;;;12.50;63.90;;;;;;5045315;28;20017;-71
2021/06/09 00:23:55;;;;;;;2.63;2.00;;;12.60;63.70;;;;;;5044300;28;20028;-67
2021/06/09 00:26:22;;;;;;;2.75;1.75;;;12.70;62.20;;;;;;5043629;28;20028;-66
2021/06/09 00:28:50;;;;;;;1.50;1.20;;;12.80;61.60;;;;;;5044845;28;20017;-63
2021/06/09 00:31:17;;;;;;;0.70;0.40;;;12.80;60.60;;;;;;5045434;28;20021;-65
2021/06/09 00:33:45;;;;;;;0.30;0.20;;;12.80;61.20;;;;;;5053183;28;20056;-63
2021/06/09 00:36:12;;;;;;;0.17;0.15;;;12.90;58.70;;;;;;5047556;28;20098;-68
2021/06/09 00:38:39;;;;;;;0.47;0.20;;;12.90;60.10;;;;;;5045235;28;20028;-69
2021/06/09 00:41:09;;;;;;;0.30;0.30;;;13.00;60.60;;;;;;5045399;28;20078;-65
2021/06/09 00:43:37;;;;;;;0.20;0.20;;;13.10;60.10;;;;;;5040641;28;20029;-64
2021/06/09 00:46:09;;;;;;;0.30;0.30;;;13.20;60.20;;;;;;5046376;28;20029;-65
2021/06/09 00:48:39;;;;;;;0.28;0.28;;;13.20;58.90;;;;;;5052006;28;20079;-67
2021/06/09 00:51:12;;;;;;;0.90;0.50;;;13.30;59.80;;;;;;5049247;28;20028;-63
2021/06/09 00:53:40;;;;;;;;;;;13.50;60.10;;;;;;5049292;28;20029;-70
2021/06/09 00:56:14;;;;;;;0.60;0.40;;;13.60;59.80;;;;;;5046695;28;20436;-61
2021/06/09 00:58:43;;;;;;;1.08;0.80;;;13.70;59.10;;;;;;5046250;28;20049;-70
2021/06/09 01:01:12;;;;;;;2.17;0.85;;;13.90;59.70;;;;;;5046106;28;20017;-71
2021/06/09 01:03:40;;;;;;;0.50;0.40;;;14.00;58.10;;;;;;5046133;28;20057;-64
2021/06/09 01:06:07;;;;;;;0.52;0.30;;;14.10;58.30;;;;;;5044916;28;20048;-63
2021/06/09 01:08:37;;;;;;;0.32;0.32;;;14.20;56.80;;;;;;5044473;28;20021;-70
2021/06/09 01:11:06;;;;;;;0.65;0.40;;;13.80;56.30;;;;;;5045943;28;20111;-68
2021/06/09 01:13:33;;;;;;;0.70;0.50;;;13.80;56.60;;;;;;5045849;28;20028;-71
2021/06/09 01:16:01;;;;;;;0.73;0.50;;;13.90;57.00;;;;;;5045852;28;20514;-66
2021/06/09 01:18:28;;;;;;;0.47;0.40;;;14.00;56.90;;;;;;5053297;28;20504;-64
2021/06/09 01:20:57;;;;;;;0.20;0.20;;;14.20;56.70;;;;;;5046004;28;20150;-64
2021/06/09 01:23:25;;;;;;;0.20;0.20;;;14.30;54.80;;;;;;5048226;28;20388;-70
2021/06/09 01:25:53;;;;;;;1.38;0.75;;;14.20;55.00;;;;;;5044052;28;20022;-64
2021/06/09 01:28:20;;;;;;;0.77;0.60;;;14.20;55.20;;;;;;5047906;28;20033;-71
2021/06/09 01:30:48;;;;;;;0.50;0.50;;;14.20;56.40;;;;;;5043695;28;20048;-64
2021/06/09 01:33:15;;;;;;;0.40;0.40;;;14.40;57.10;;;;;;5045698;28;20108;-64
2021/06/09 01:35:43;;;;;;;0.95;0.80;;;14.50;55.20;;;;;;5043237;28;20547;-71
2021/06/09 01:38:11;;;;;;;0.82;0.52;;;14.40;56.10;;;;;;5042508;28;20104;-64
2021/06/09 01:40:39;;;;;;;0.75;0.73;;;14.60;55.80;;;;;;5047366;28;20035;-70
2021/06/09 01:43:07;;;;;;;1.40;1.00;;;14.80;54.40;;;;;;5048086;28;20032;-65
2021/06/09 01:45:36;;;;;;;1.15;0.47;;;14.80;53.50;;;;;;5042720;28;20029;-69
2021/06/09 01:48:04;;;;;;;0.22;0.22;;;14.90;56.10;;;;;;5048731;28;20341;-70
2021/06/09 01:50:32;;;;;;;0.68;0.43;;;15.00;54.00;;;;;;5043310;28;20275;-64
2021/06/09 01:53:03;;;;;;;1.02;0.55;;;14.80;54.10;;;;;;5047950;28;20035;-65
2021/06/09 01:55:32;;;;;;;1.90;1.15;;;14.80;53.90;;;;;;5044842;28;20025;-70
2021/06/09 01:57:59;;;;;;;0.30;0.20;;;15.00;53.70;;;;;;5042091;28;20440;-69
2021/06/09 02:00:33;;;;;;;0.20;0.20;;;15.00;53.30;;;;;;5043601;28;20079;-72
2021/06/09 02:03:00;;;;;;;0.65;0.52;;;15.10;52.70;;;;;;5043176;28;20037;-66
2021/06/09 02:05:33;;;;;;;1.75;1.10;;;15.30;53.00;;;;;;5047506;28;20538;-65
2021/06/09 02:08:05;;;;;;;2.05;1.42;;;15.40;51.30;;;;;;5043436;28;20747;-70
2021/06/09 02:10:32;;;;;;;0.20;0.20;;;15.40;52.70;;;;;;5040252;28;20388;-69
2021/06/09 02:13:07;;;;;;;0.47;0.35;;;15.30;51.10;;;;;;5042367;28;20441;-69
2021/06/09 02:15:35;;;;;;;0.52;0.30;;;15.30;51.40;;;;;;5042466;28;20548;-70
2021/06/09 02:20:42;;;;;;;0.57;0.35;;;15.00;52.70;;;;;;5040689;28;20033;-64
2021/06/09 02:23:14;;;;;;;1.65;0.40;;;15.10;52.40;;;;;;5041727;28;20760;-67
2021/06/09 02:25:44;;;;;;;0.27;0.20;;;15.30;53.10;;;;;;5039621;28;20049;-71
2021/06/09 02:28:11;;;;;;;0.10;0.10;;;15.40;51.80;;;;;;5045573;28;20060;-63
2021/06/09 02:30:41;;;;;;;0.30;0.30;;;15.80;51.60;;;;;;5039860;28;20100;-68
2021/06/09 02:33:08;;;;;;;0.20;0.20;;;15.70;50.40;;;;;;5041866;28;20024;-71
2021/06/09 02:35:40;;;;;;;0.10;0.10;;;15.70;50.30;;;;;;5040825;28;20029;-73
2021/06/09 02:38:08;;;;;;;0.20;0.20;;;15.70;49.30;;;;;;5042106;28;20029;-70
2021/06/09 02:40:37;;;;;;;0.43;0.30;;;15.70;50.40;;;;;;5043263;28;20021;-63
2021/06/09 02:43:04;;;;;;;1.08;0.13;;;15.80;49.50;;;;;;5043699;28;20871;-69
2021/06/09 02:45:31;;;;;;;0.20;0.20;;;15.90;48.50;;;;;;5040982;28;20143;-69
2021/06/09 02:48:10;;;;;;;0.40;0.30;;;15.70;49.10;;;;;;5041873;28;20028;-68
2021/06/09 02:50:39;;;;;;;0.40;0.20;;;15.40;50.80;;;;;;5044805;28;20025;-65
2021/06/09 02:53:19;;;;;;;0.60;0.40;;;15.20;50.30;;;;;;5038425;28;20028;-69
2021/06/09 02:55:49;;;;;;;0.20;0.20;;;14.90;51.60;;;;;;5046612;28;20048;-63
2021/06/09 02:58:34;;;;;;;0.55;0.28;;;14.80;51.50;;;;;;5045585;28;20028;-69
2021/06/09 03:01:27;;;;;;;1.45;0.20;;;14.80;51.30;;;;;;5044502;28;20032;-64
2021/06/09 03:04:00;;;;;;;0.30;0.20;;;15.00;51.60;;;;;;5042276;28;20021;-63
2021/06/09 03:06:40;;;;;;;0.32;0.30;;;14.90;50.10;;;;;;5039706;28;20040;-63
2021/06/09 03:09:28;;;;;;;0.95;0.65;;;14.70;51.60;;;;;;5042148;28;20024;-63
2021/06/09 03:12:14;;;;;;;0.30;0.22;;;14.70;51.70;;;;;;5045102;28;20028;-69
2021/06/09 03:17:45;;;;;;;0.20;0.20;;;14.50;51.70;;;;;;5042520;28;20097;-70
2021/06/09 03:20:24;;;;;;;0.22;0.20;;;14.40;51.50;;;;;;5051328;28;20597;-63
2021/06/09 03:23:26;;;;;;;0.57;0.30;;;14.30;51.90;;;;;;5035595;28;20022;-64
2021/06/09 03:26:15;;;;;;;0.20;0.20;;;14.30;52.90;;;;;;4996604;28;20048;-71
2021/06/09 03:29:10;;;;;;;0.20;0.20;;;14.50;53.00;;;;;;5044061;28;20028;-74
2021/06/09 03:31:45;;;;;;;0.88;0.20;;;14.60;52.70;;;;;;5045745;28;20118;-64
2021/06/09 03:34:18;;;;;;;0.52;0.30;;;14.60;53.00;;;;;;5040440;28;20503;-64
2021/06/09 03:36:46;;;;;;;0.20;0.20;;;14.90;54.20;;;;;;5035556;28;20038;-65
2021/06/09 03:39:16;;;;;;;0.30;0.30;;;15.30;52.90;;;;;;5037027;28;20554;-65
2021/06/09 03:41:46;;;;;;;1.70;0.90;;;15.40;51.30;;;;;;5040775;28;20391;-64
2021/06/09 03:44:16;;;;;;;0.40;0.30;;;15.60;51.60;;;;;;5039366;28;20075;-72
2021/06/09 03:46:45;;;;;;;0.40;0.40;;;15.60;50.50;;;;;;5044689;28;20090;-71
2021/06/09 03:49:15;;;;;;;0.10;0.10;;;15.40;51.30;;;;;;5039680;28;20094;-69
2021/06/09 03:51:43;;;;;;;0.20;0.20;;;15.40;52.10;;;;;;5036878;28;20104;-66
2021/06/09 03:54:12;;;;;;;0.20;0.20;;;15.40;51.60;;;;;;5041403;28;20017;-65
2021/06/09 03:56:44;;;;;;;2.65;1.27;;;15.70;52.60;;;;;;5040436;28;20487;-64
2021/06/09 03:59:13;;;;;;;2.17;0.70;;;15.80;52.20;;;;;;5041883;28;20033;-69
2021/06/09 04:01:41;;;;;;;0.63;0.50;;;15.60;51.80;;;;;;5040516;28;20021;-67
2021/06/09 04:04:10;;;;;;;0.30;0.22;;;15.20;51.70;;;;;;5041998;28;20030;-71
2021/06/09 04:06:42;;;;;;;0.80;0.20;;;15.20;51.20;;;;;;5040184;28;20010;-71
2021/06/09 04:09:12;;;;;;;0.65;0.30;;;15.00;51.00;;;;;;5044244;28;20025;-72
2021/06/09 04:11:41;;;;;;;1.40;0.20;;;15.00;52.40;;;;;;5039330;28;20025;-65
2021/06/09 04:14:11;;;;;;;0.38;0.30;;;14.80;53.00;;;;;;5043919;28;20044;-71
2021/06/09 04:16:39;;;;;;;0.22;0.20;;;15.00;53.10;;;;;;5037684;28;20570;-69
2021/06/09 04:19:10;;;;;;;0.38;0.20;;;15.20;51.00;;;;;;5040866;28;20168;-69
2021/06/09 04:21:37;;;;;;;0.40;0.25;;;15.10;50.80;;;;;;5039617;28;20025;-64
2021/06/09 04:24:05;;;;;;;0.30;0.30;;;15.10;51.20;;;;;;5038678;28;20035;-71
2021/06/09 04:26:34;;;;;;;0.20;0.20;;;15.10;50.30;;;;;;5044570;28;20024;-63
2021/06/09 04:29:03;;;;;;;0.10;0.10;;;14.90;51.20;;;;;;5044303;28;20024;-71
2021/06/09 04:31:31;;;;;;;0.88;0.30;;;14.50;52.00;;;;;;5043484;28;20132;-71
2021/06/09 04:33:59;;;;;;;0.20;0.10;;;14.10;53.60;;;;;;5042477;28;20016;-72
2021/06/09 04:36:26;;;;;;;0.65;0.40;;;13.90;53.30;;;;;;5035737;28;20025;-70
2021/06/09 04:38:53;;;;;;;0.20;0.20;;;13.80;54.50;;;;;;5042113;28;20264;-64
2021/06/09 04:41:21;;;;;;;1.98;1.02;;;13.60;55.50;;;;;;5043779;28;20021;-73
2021/06/09 04:43:48;;;;;;;0.80;0.60;;;13.70;54.40;;;;;;5041979;28;20017;-70
2021/06/09 04:46:22;;;;;;;1.10;0.88;;;13.60;54.70;;;;;;5038471;28;20043;-64
2021/06/09 04:49:05;;;;;;;0.30;0.20;;;13.50;55.40;;;;;;5036378;28;20025;-63
2021/06/09 04:51:41;;;;;;;0.70;0.20;;;13.60;53.90;;;;;;5040565;28;20464;-69
2021/06/09 04:54:09;;;;;;;0.40;0.40;;;13.70;54.80;;;;;;5043473;28;20121;-63
2021/06/09 04:56:39;;;;;;;0.45;0.43;;;13.70;53.90;;;;;;5035390;28;20514;-68
2021/06/09 04:59:08;;;;;;;1.60;1.10;;;13.90;54.60;;;;;;5040521;28;20016;-67
2021/06/09 05:01:39;;;;;;;1.92;0.40;;;14.10;54.20;;;;;;5038100;28;20086;-68
2021/06/09 05:04:06;;;;;;;0.47;0.40;;;14.00;53.20;;;;;;5043091;28;20368;-69
2021/06/09 05:06:34;;;;;;;1.23;1.08;;;13.90;52.80;;;;;;5040432;28;20561;-62
2021/06/09 05:09:03;;;;;;;0.80;0.40;;;14.00;53.30;;;;;;5043423;28;20036;-69
2021/06/09 05:11:51;;;;;;;0.70;0.40;;;14.00;53.40;;;;;;5037949;28;20031;-63
2021/06/09 05:14:27;;;;;;;0.20;0.20;;;14.00;52.90;;;;;;5039349;28;20022;-63
2021/06/09 05:16:55;;;;;;;0.20;0.20;;;14.10;52.10;;;;;;5039083;28;20025;-69
2021/06/09 05:19:25;;;;;;;0.30;0.20;;;13.80;52.50;;;;;;5043792;28;20021;-69
2021/06/09 05:21:57;;;;;;;0.45;0.25;;;13.90;54.00;;;;;;5040030;28;20021;-70
2021/06/09 05:24:28;;;;;;;0.32;0.32;;;13.90;53.10;;;;;;5044527;28;20576;-70
2021/06/09 05:26:56;;;;;;;0.40;0.35;;;13.80;53.70;;;;;;5043131;28;20086;-64
2021/06/09 05:29:25;;;;;;;0.30;0.30;;;13.80;54.60;;;;;;5045277;28;20450;-61
2021/06/09 05:31:54;;;;;;;0.30;0.22;;;13.60;53.80;;;;;;5040627;28;20025;-67
2021/06/09 05:34:22;;;;;;;0.35;0.20;;;13.20;54.60;;;;;;5043464;28;20025;-65
2021/06/09 05:36:50;;;;;;;0.10;0.10;;;13.20;55.60;;;;;;5041012;28;20056;-67
2021/06/09 05:39:18;;;;;;;0.43;0.32;;;13.40;55.70;;;;;;5040632;28;20499;-71
2021/06/09 05:41:46;;;;;;;0.40;0.30;;;13.50;55.20;;;;;;5043628;28;20090;-68
2021/06/09 05:44:17;;;;;;;1.30;0.30;;;13.50;55.30;;;;;;5042666;28;20025;-64
2021/06/09 05:46:45;;;;;;;0.98;0.38;;;13.70;55.40;;;;;;5036775;28;20040;-72
2021/06/09 05:49:24;;;;;;;0.40;0.30;;;13.90;55.30;;;;;;5040086;28;20098;-68
2021/06/09 05:51:52;;;;;;;0.75;0.30;;;13.50;55.90;;;;;;5039813;28;20041;-62
2021/06/09 05:54:20;;;;;;;0.43;0.30;;;13.20;56.60;;;;;;5042426;28;20021;-63
2021/06/09 05:56:48;;;;;;;1.55;0.45;;;13.00;57.50;;;;;;5040683;28;20025;-61
2021/06/09 05:59:16;;;;;;;1.02;0.30;;;12.70;57.60;;;;;;5040808;28;20060;-66
2021/06/09 06:01:44;;;;;;;0.43;0.40;;;12.60;58.80;;;;;;5038217;28;20562;-63
2021/06/09 06:04:12;;;;;;;0.43;0.40;;;12.40;59.00;;;;;;5035827;28;20068;-69
2021/06/09 06:06:40;;;;;;;0.20;0.20;;;12.30;58.90;;;;;;5037733;28;20037;-65
2021/06/09 06:09:07;;;;;;;0.30;0.30;;;12.30;58.80;;;;;;5041556;28;20025;-66
2021/06/09 06:11:35;;;;;;;1.85;0.50;;;12.20;59.70;;;;;;5043140;28;20025;-64
2021/06/09 06:14:08;;;;;;;0.55;0.35;;;12.20;59.40;;;;;;5042540;28;20033;-66
2021/06/09 06:16:37;;;;;;;0.20;0.20;;;12.20;59.80;;;;;;5040079;28;20289;-65
2021/06/09 06:19:05;;;;;;;0.55;0.38;;;12.10;59.10;;;;;;5042990;28;20128;-65
2021/06/09 06:21:33;;;;;;;1.55;1.02;;;12.10;59.20;;;;;;5042362;28;20040;-69
2021/06/09 06:24:00;;;;;;;1.48;0.93;;;11.90;59.90;;;;;;5042563;28;20093;-68
2021/06/09 06:26:28;;;;;;;1.20;0.90;;;11.80;60.00;;;;;;5047135;28;20032;-70
2021/06/09 06:28:55;;;;;;;0.45;0.40;;;11.70;60.80;;;;;;5041187;28;20458;-67
2021/06/09 06:31:28;;;;;;;0.75;0.60;;;11.60;60.90;;;;;;5040987;28;20299;-70
2021/06/09 06:34:00;;;;;;;0.50;0.43;;;11.50;61.70;;;;;;5040614;28;20030;-65
2021/06/09 06:36:28;;;;;;;0.70;0.60;;;11.50;61.90;;;;;;5039897;28;20035;-65
2021/06/09 06:38:55;;;;;;;1.48;0.70;;;11.40;62.30;;;;;;5041165;28;20384;-65
2021/06/09 06:41:23;;;;;;;2.33;0.65;;;11.30;62.50;;;;;;5042023;28;20557;-70
2021/06/09 06:43:51;;;;;;;0.60;0.50;;;11.20;63.40;;;;;;5039053;28;20112;-66
2021/06/09 06:46:19;;;;;;;0.93;0.77;;;11.10;64.00;;;;;;5044776;28;20033;-65
2021/06/09 06:48:52;;;;;;;0.95;0.65;;;10.90;65.10;;;;;;5040937;28;20466;-69
2021/06/09 06:51:26;;;;;;;1.27;0.47;;;10.80;65.10;;;;;;5043588;28;20360;-70
2021/06/09 06:53:55;;;;;;;1.38;0.73;;;10.80;64.20;;;;;;5056883;28;20416;-66
2021/06/09 06:56:25;;;;;;;0.98;0.70;;;10.80;64.40;;;;;;5045378;28;20404;-66
2021/06/09 06:58:52;;;;;;;0.73;0.60;;;10.70;65.50;;;;;;5045298;28;20017;-66
2021/06/09 07:01:28;;;;;;;1.58;0.70;;;10.70;64.30;;;;;;5038123;28;20158;-66
2021/06/09 07:06:23;;;;;;;1.67;1.30;;;10.40;65.20;;;;;;5000912;28;20501;-68
2021/06/09 07:08:50;;;;;;;1.70;0.93;;;10.40;64.70;;;;;;5001921;28;20085;-68
2021/06/09 07:11:18;;;;;;;1.05;0.80;;;10.40;64.30;;;;;;5004224;28;20026;-66
2021/06/09 07:13:51;;;;;;;4.88;2.78;;;10.40;64.50;;;;;;4997841;28;20041;-65
2021/06/09 07:16:18;;;;;;;;;;;10.30;64.70;;;;;;5003171;28;20032;-65
2021/06/09 07:18:46;;;;;;;3.10;1.48;;;10.30;64.90;;;;;;4999004;28;19967;-65
2021/06/09 07:21:22;;;;;;;3.25;1.60;;;10.20;65.40;;;;;;5002279;28;20030;-65
2021/06/09 07:23:50;;;;;;;4.57;2.53;;;10.10;65.80;;;;;;4997443;28;20080;-70
2021/06/09 07:26:19;;;;;;;4.75;3.10;;;10.00;66.40;;;;;;4997170;28;20109;-65
2021/06/09 07:28:55;;;;;;;6.10;4.55;;;9.90;67.00;;;;;;4996999;28;20057;-65
2021/06/09 07:31:34;;;;;;;5.82;4.53;;;9.80;67.80;;;;;;5006039;28;20025;-68
2021/06/09 07:34:03;;;;;;;5.18;3.50;;;9.60;69.80;;;;;;5001489;28;20042;-64
2021/06/09 07:36:48;;;;;;;3.30;1.90;;;9.40;70.80;;;;;;5000318;28;20420;-69
2021/06/09 07:39:21;;;;;;;2.80;1.83;;;9.20;72.50;;;;;;4303462;28;10000704;-65
2021/06/09 07:41:48;;;;;;;3.00;1.90;;;9.10;72.40;;;;;;4998829;28;20774;-71
2021/06/09 07:44:17;;;;;;;4.10;2.22;;;9.00;71.60;;;;;;5001330;28;20033;-71
2021/06/09 07:46:45;;;;;;;2.63;2.20;;;9.00;71.80;;;;;;4999306;28;20037;-68
2021/06/09 07:49:13;;;;;;;3.33;1.98;;;8.90;73.40;;;;;;4999336;28;20109;-73
2021/06/09 07:51:44;;;;;;;3.60;1.80;;;8.80;74.10;;;;;;4995014;28;20026;-64
2021/06/09 07:54:13;;;;;;;2.83;1.67;;;8.70;75.30;;;;;;4997126;28;20133;-62
2021/06/09 07:56:43;;;;;;;2.15;1.63;;;8.60;75.40;;;;;;4995096;28;20038;-63
2021/06/09 07:59:12;;;;;;;3.03;1.70;;;8.50;75.50;;;;;;4998193;28;20029;-63
2021/06/09 08:01:43;;;;;;;3.30;1.80;;;8.40;76.00;;;;;;4996930;28;20031;-67
2021/06/09 08:04:12;;;;;;;7.28;2.50;;;8.40;74.70;;;;;;4994689;28;20594;-69
2021/06/09 08:06:42;;;;;;;12.13;4.28;;;8.40;75.20;;;;;;4995784;28;20045;-69
2021/06/09 08:09:09;;;;;;;7.13;3.45;;;8.50;74.90;;;;;;4996187;28;20026;-65
2021/06/09 08:11:37;;;;;;;13.82;4.72;;;8.40;75.50;;;;;;4997335;28;20022;-64
2021/06/09 08:14:07;;;;;;;12.05;5.15;;;8.20;76.10;;;;;;4995744;28;20405;-68
2021/06/09 08:16:36;;;;;;;12.40;5.35;;;8.10;77.30;;;;;;4996484;28;20026;-68
2021/06/09 08:19:05;;;;;;;6.82;4.30;;;8.10;79.00;;;;;;5001206;28;20033;-72
2021/06/09 08:21:33;;;;;;;5.78;3.22;;;8.00;79.50;;;;;;4999544;28;20436;-64
2021/06/09 08:24:00;;;;;;;4.82;2.80;;;8.10;78.00;;;;;;4993356;28;20062;-65
2021/06/09 08:26:32;;;;;;;2.78;2.08;;;8.10;78.30;;;;;;4995813;28;20552;-64
2021/06/09 08:28:59;;;;;;;3.08;1.88;;;8.10;79.40;;;;;;4996570;28;20033;-64
2021/06/09 08:31:31;;;;;;;2.08;1.50;;;8.10;80.00;;;;;;4997753;28;20017;-65
2021/06/09 08:34:00;;;;;;;2.58;1.67;;;8.00;80.10;;;;;;4993647;28;20535;-65
2021/06/09 08:36:28;;;;;;;3.17;1.50;;;8.00;79.60;;;;;;4995170;28;20060;-68
2021/06/09 08:38:56;;;;;;;1.70;1.23;;;8.00;80.20;;;;;;4995815;28;20054;-64
2021/06/09 08:41:27;;;;;;;2.53;1.50;;;7.90;80.50;;;;;;4997457;28;20031;-63
2021/06/09 08:43:55;;;;;;;2.03;1.30;;;7.80;81.50;;;;;;4996246;28;20026;-62
2021/06/09 08:46:23;;;;;;;1.65;1.27;;;7.90;81.70;;;;;;4996479;28;20032;-64
2021/06/09 08:48:50;;;;;;;1.92;1.50;;;7.80;81.50;;;;;;4996879;28;20081;-69
2021/06/09 08:51:18;;;;;;;1.73;1.40;;;7.70;82.30;;;;;;4998534;28;20034;-65
2021/06/09 08:53:50;;;;;;;3.88;1.70;;;7.70;82.20;;;;;;4996363;28;20153;-67
2021/06/09 08:56:19;;;;;;;3.75;2.00;;;7.80;83.10;;;;;;4992679;28;20027;-67
2021/06/09 08:58:47;;;;;;;2.00;1.45;;;7.70;84.00;;;;;;5000216;28;20129;-63
2021/06/09 09:01:15;;;;;;;2.03;1.70;;;7.80;82.40;;;;;;5000539;28;20523;-65
2021/06/09 09:03:45;;;;;;;4.78;3.60;;;7.90;81.60;;;;;;5002012;28;20057;-64
2021/06/09 09:06:12;;;;;;;5.35;4.65;;;7.90;82.20;;;;;;4993373;28;20049;-64
2021/06/09 09:08:39;;;;;;;1.92;1.58;;;7.90;81.70;;;;;;5002289;28;20024;-65
2021/06/09 09:11:07;;;;;;;1.83;1.40;;;7.90;82.50;;;;;;5002204;28;20037;-66
2021/06/09 09:13:35;;;;;;;1.75;1.25;;;7.90;82.10;;;;;;5002340;28;20033;-65
2021/06/09 09:16:02;;;;;;;2.63;1.00;;;8.00;82.60;;;;;;4994803;28;20022;-66
2021/06/09 09:19:02;;;;;;;1.40;0.90;;;8.00;82.50;;;;;;5000749;28;20120;-67
2021/06/09 09:21:47;;;;;;;1.05;0.70;;;8.10;82.60;;;;;;5000559;28;20409;-64
2021/06/09 09:24:14;;;;;;;3.20;0.82;;;8.20;82.50;;;;;;4998285;28;20030;-66
2021/06/09 09:26:44;;;;;;;14.98;10.30;;;8.20;83.20;;;;;;4996780;28;20136;-64
2021/06/09 09:29:23;;;;;;;7.78;5.15;;;8.10;83.70;;;;;;4997699;28;20030;-66
2021/06/09 09:31:53;;;;;;;7.75;5.50;;;8.10;84.10;;;;;;4995970;28;20026;-65
2021/06/09 09:34:30;;;;;;;3.63;1.75;;;8.10;84.20;;;;;;4992782;28;20018;-68
2021/06/09 09:37:24;;;;;;;1.77;0.85;;;8.10;84.00;;;;;;4993770;28;20031;-69
2021/06/09 09:40:05;;;;;;;1.42;0.90;;;8.10;84.10;;;;;;4991116;28;20048;-71
2021/06/09 09:42:33;;;;;;;0.98;0.80;;;8.10;84.00;;;;;;4997579;28;20029;-67
2021/06/09 09:45:27;;;;;;;2.00;0.93;;;8.10;84.20;;;;;;5005087;28;20049;-67
2021/06/09 09:48:18;;;;;;;2.13;1.00;;;8.10;83.90;;;;;;5006334;28;20021;-68
2021/06/09 09:50:52;;;;;;;1.15;0.90;;;8.10;83.80;;;;;;5006075;28;20031;-66
2021/06/09 09:53:21;;;;;;;2.05;0.88;;;8.10;83.40;;;;;;5002672;28;20088;-66
2021/06/09 09:55:57;;;;;;;1.52;0.60;;;8.10;83.90;;;;;;5004620;28;20688;-72
2021/06/09 09:58:26;;;;;;;1.05;0.65;;;8.10;83.50;;;;;;5004196;28;20124;-66
2021/06/09 10:01:12;;;;;;;1.67;0.98;;;8.10;83.70;;;;;;5004579;28;20103;-66
2021/06/09 10:03:41;;;;;;;2.50;0.90;;;8.10;83.90;;;;;;4998868;28;20089;-65
2021/06/09 10:06:45;;;;;;;1.17;0.90;;;8.00;83.70;;;;;;5004690;28;20508;-69
2021/06/09 10:09:23;;;;;;;1.25;0.80;;;8.00;83.50;;;;;;4993068;28;20556;-65
2021/06/09 10:11:57;;;;;;;1.90;1.02;;;8.00;84.00;;;;;;5000926;28;20603;-64
2021/06/09 10:14:25;;;;;;;1.55;1.05;;;8.00;83.80;;;;;;4998637;28;20030;-68
2021/06/09 10:17:10;;;;;;;1.42;0.90;;;8.00;83.80;;;;;;5002622;28;20307;-68
2021/06/09 10:19:43;;;;;;;1.20;1.00;;;8.00;83.70;;;;;;5001573;28;20021;-63
2021/06/09 10:22:22;;;;;;;0.75;0.70;;;8.00;84.00;;;;;;5000142;28;20033;-63
2021/06/09 10:24:57;;;;;;;1.15;0.75;;;8.00;83.70;;;;;;5005622;28;20374;-65
2021/06/09 10:27:35;;;;;;;1.92;0.90;;;7.90;83.70;;;;;;4995760;28;20025;-68
2021/06/09 10:30:20;;;;;;;1.25;0.60;;;7.90;84.50;;;;;;4998175;28;20026;-65
2021/06/09 10:32:52;;;;;;;0.77;0.70;;;7.90;84.90;;;;;;5002885;28;20428;-68
2021/06/09 10:35:22;;;;;;;2.17;0.70;;;7.90;85.10;;;;;;5004177;28;20724;-67
2021/06/09 10:37:51;;;;;;;0.57;0.57;;;7.80;84.10;;;;;;5005315;28;20072;-67
2021/06/09 10:40:20;;;;;;;0.98;0.73;;;7.80;84.30;;;;;;5007397;28;20436;-68
2021/06/09 10:42:49;;;;;;;1.27;1.00;;;7.80;84.10;;;;;;5000019;28;20022;-67
2021/06/09 10:45:18;;;;;;;0.95;0.60;;;7.80;84.10;;;;;;5004289;28;20049;-67
2021/06/09 10:47:47;;;;;;;0.77;0.50;;;7.70;84.20;;;;;;5002789;28;20128;-68
2021/06/09 10:50:15;;;;;;;1.98;0.73;;;7.70;84.30;;;;;;5003865;28;20064;-66
2021/06/09 10:52:43;;;;;;;0.52;0.40;;;7.70;84.10;;;;;;4998186;28;20025;-67
2021/06/09 10:55:11;;;;;;;0.68;0.50;;;7.70;84.40;;;;;;5002835;28;20022;-65
2021/06/09 10:57:39;;;;;;;0.85;0.57;;;7.70;83.90;;;;;;5004542;28;20029;-66
2021/06/09 11:00:12;;;;;;;0.52;0.52;;;7.70;83.90;;;;;;5003675;28;20079;-64
2021/06/09 11:02:40;;;;;;;12.05;8.25;;;7.70;84.00;;;;;;5003666;28;20061;-66
2021/06/09 11:05:10;;;;;;;5.20;3.60;;;7.60;83.70;;;;;;5003231;28;20438;-68
2021/06/09 11:07:41;;;;;;;1.10;0.98;;;7.60;84.20;;;;;;5003207;28;20568;-67
2021/06/09 11:10:14;;;;;;;0.75;0.60;;;7.60;84.40;;;;;;5001500;28;20040;-66
2021/06/09 11:12:46;;;;;;;1.05;0.68;;;7.50;84.50;;;;;;5003626;28;20049;-67
2021/06/09 11:15:16;;;;;;;1.20;0.60;;;7.50;84.90;;;;;;5000531;28;20056;-68
2021/06/09 11:17:46;;;;;;;0.45;0.45;;;7.40;84.40;;;;;;5003385;28;20129;-66
2021/06/09 11:20:37;;;;;;;0.88;0.63;;;7.40;85.00;;;;;;4998344;28;20066;-65
2021/06/09 11:23:11;;;;;;;0.50;0.50;;;7.40;85.00;;;;;;5000112;28;20069;-68
2021/06/09 11:25:47;;;;;;;0.40;0.40;;;7.40;84.50;;;;;;4996176;28;20026;-65
2021/06/09 11:28:42;;;;;;;0.85;0.50;;;7.40;84.30;;;;;;5000735;28;20409;-65
2021/06/09 11:31:21;;;;;;;0.50;0.50;;;7.40;84.20;;;;;;5000433;28;20026;-67
2021/06/09 11:33:55;;;;;;;0.50;0.50;;;7.30;84.60;;;;;;4989734;28;20137;-67
2021/06/09 11:36:22;;;;;;;0.98;0.70;;;7.30;84.50;;;;;;4997669;28;20112;-64
2021/06/09 11:38:54;;;;;;;0.50;0.50;;;7.30;84.20;;;;;;5001438;28;20026;-68
2021/06/09 11:41:45;;;;;;;0.80;0.50;;;7.30;84.10;;;;;;4998550;28;20125;-68
2021/06/09 11:44:34;;;;;;;1.42;0.60;;;7.30;84.30;;;;;;5004560;28;20037;-65
2021/06/09 11:47:24;;;;;;;0.70;0.60;;;7.30;84.10;;;;;;5003479;28;20080;-66
2021/06/09 11:49:54;;;;;;;0.55;0.55;;;7.20;84.50;;;;;;5004084;28;20018;-67
2021/06/09 11:52:23;;;;;;;1.10;0.80;;;7.10;84.50;;;;;;5004554;28;20026;-65
2021/06/09 11:55:12;;;;;;;0.65;0.50;;;7.10;84.10;;;;;;4995758;28;20025;-66
2021/06/09 11:57:39;;;;;;;0.57;0.57;;;7.10;84.00;;;;;;5001522;28;20376;-69
2021/06/09 12:00:10;;;;;;;0.47;0.47;;;7.10;83.80;;;;;;5007040;28;20033;-68
2021/06/09 12:02:38;;;;;;;0.40;0.40;;;7.20;83.60;;;;;;5001021;28;20812;-66
2021/06/09 12:05:06;;;;;;;2.15;0.65;;;7.10;83.70;;;;;;5002795;28;20053;-64
2021/06/09 12:07:35;;;;;;;2.00;1.50;;;7.10;84.40;;;;;;5001189;28;20124;-65
2021/06/09 12:10:08;;;;;;;3.20;2.55;;;7.00;84.00;;;;;;4999571;28;20730;-66
2021/06/09 12:12:37;;;;;;;2.55;1.73;;;7.00;84.40;;;;;;5006158;28;20021;-65
2021/06/09 12:15:10;;;;;;;3.03;2.00;;;7.10;83.90;;;;;;5006031;28;20036;-69
2021/06/09 12:17:46;;;;;;;3.05;2.40;;;7.10;84.20;;;;;;4997059;28;20037;-63
2021/06/09 12:20:13;;;;;;;3.25;2.20;;;7.00;84.40;;;;;;5006316;28;20037;-67
2021/06/09 12:22:58;;;;;;;1.02;0.73;;;6.90;84.80;;;;;;5006024;28;20033;-65
2021/06/09 12:25:28;;;;;;;0.50;0.43;;;6.90;85.10;;;;;;4998927;28;20030;-68
2021/06/09 12:28:13;;;;;;;0.50;0.40;;;6.90;85.30;;;;;;5004753;28;20459;-65
2021/06/09 12:30:44;;;;;;;0.57;0.50;;;6.80;85.50;;;;;;4999485;28;20029;-65
2021/06/09 12:33:11;;;;;;;0.80;0.55;;;6.80;84.90;;;;;;4998987;28;20096;-64
2021/06/09 12:35:38;;;;;;;0.45;0.30;;;6.90;84.70;;;;;;4993699;28;20484;-67
2021/06/09 12:38:07;;;;;;;0.55;0.50;;;6.90;84.80;;;;;;4995432;28;20342;-70
2021/06/09 12:40:44;;;;;;;0.47;0.47;;;6.90;84.50;;;;;;4999573;28;20395;-71
2021/06/09 12:43:13;;;;;;;0.50;0.30;;;6.90;84.50;;;;;;4999193;28;20759;-63
2021/06/09 12:45:45;;;;;;;0.60;0.35;;;6.90;84.60;;;;;;4997930;28;20029;-65
2021/06/09 12:48:16;;;;;;;0.38;0.38;;;6.80;84.40;;;;;;4999039;28;20052;-65
2021/06/09 12:50:55;;;;;;;0.40;0.40;;;6.80;84.80;;;;;;4998978;28;20076;-67
2021/06/09 12:53:24;;;;;;;0.32;0.32;;;6.80;84.60;;;;;;4995156;28;20386;-69
2021/06/09 12:56:00;;;;;;;0.30;0.30;;;6.80;85.60;;;;;;5002118;28;20251;-72
2021/06/09 12:58:30;;;;;;;0.68;0.60;;;6.70;85.20;;;;;;4998458;28;20441;-65
2021/06/09 13:01:04;;;;;;;0.40;0.38;;;6.70;85.50;;;;;;4998866;28;20038;-66
2021/06/09 13:03:34;;;;;;;0.30;0.30;;;6.70;85.10;;;;;;4995568;28;20021;-66
2021/06/09 13:06:10;;;;;;;0.50;0.50;;;6.70;85.30;;;;;;4994950;28;20049;-71
2021/06/09 13:08:45;;;;;;;0.50;0.40;;;6.70;85.40;;;;;;4996590;28;20084;-65
2021/06/09 13:11:19;;;;;;;0.55;0.40;;;6.60;85.60;;;;;;4998849;28;20678;-69
2021/06/09 13:13:58;;;;;;;0.52;0.52;;;6.60;85.80;;;;;;4997992;28;20021;-65
2021/06/09 13:16:28;;;;;;;0.93;0.57;;;6.60;85.90;;;;;;4996410;28;20362;-65
2021/06/09 13:19:02;;;;;;;1.45;0.68;;;6.50;85.80;;;;;;4999256;28;20030;-70
2021/06/09 13:21:32;;;;;;;0.90;0.68;;;6.50;86.30;;;;;;4999063;28;20108;-66